createdAt,value
2022-09-13T00:02:18.935Z,62.51
2022-09-13T00:04:46.772Z,62.53
2022-09-13T00:07:14.563Z,62.40
2022-09-13T00:09:42.341Z,62.49
2022-09-13T00:12:10.125Z,62.85
2022-09-13T00:14:37.982Z,62.82
2022-09-13T00:17:05.863Z,63.21
2022-09-13T00:19:35.260Z,63.57
2022-09-13T00:22:03.035Z,63.49
2022-09-13T00:24:30.843Z,63.28
2022-09-13T00:26:58.619Z,63.57
2022-09-13T00:29:26.435Z,63.19
2022-09-13T00:31:54.573Z,63.10
2022-09-13T00:34:22.447Z,62.94
2022-09-13T00:36:51.588Z,62.77
2022-09-13T00:39:19.553Z,62.68
2022-09-13T00:41:47.353Z,62.41
2022-09-13T00:44:53.649Z,62.58
2022-09-13T00:47:24.892Z,62.90
2022-09-13T00:49:57.249Z,62.77
2022-09-13T00:52:29.634Z,62.59
2022-09-13T00:55:02.660Z,62.72
2022-09-13T00:57:33.035Z,62.41
2022-09-13T01:00:09.264Z,62.93
2022-09-13T01:02:37.656Z,63.01
2022-09-13T01:05:06.547Z,62.65
2022-09-13T01:07:36.117Z,62.79
2022-09-13T01:10:07.731Z,62.35
2022-09-13T01:12:44.052Z,62.73
2022-09-13T01:15:12.395Z,62.88
2022-09-13T01:17:41.029Z,63.49
2022-09-13T01:20:11.540Z,63.63
2022-09-13T01:22:57.441Z,63.33
2022-09-13T01:26:08.457Z,64.09
2022-09-13T01:28:56.995Z,65.01
2022-09-13T01:31:33.403Z,64.87
2022-09-13T01:34:15.225Z,64.56
2022-09-13T01:36:57.932Z,64.52
2022-09-13T01:39:39.678Z,65.07
2022-09-13T01:42:17.863Z,65.33
2022-09-13T01:44:58.573Z,66.08
2022-09-13T01:47:31.140Z,65.63
2022-09-13T01:50:10.729Z,65.26
2022-09-13T01:52:51.530Z,64.77
2022-09-13T01:55:28.291Z,65.18
2022-09-13T01:58:04.113Z,65.30
2022-09-13T02:00:38.775Z,65.43
2022-09-13T02:03:13.941Z,65.05
2022-09-13T02:05:48.621Z,65.33
2022-09-13T02:08:21.099Z,65.29
2022-09-13T02:10:54.437Z,65.58
2022-09-13T02:13:27.839Z,65.63
2022-09-13T02:16:00.929Z,65.88
2022-09-13T02:18:36.029Z,65.67
2022-09-13T02:21:13.380Z,65.73
2022-09-13T02:23:45.530Z,65.97
2022-09-13T02:26:16.381Z,66.55
2022-09-13T02:28:49.146Z,66.37
2022-09-13T02:31:21.657Z,65.85
2022-09-13T02:33:55.112Z,66.50
2022-09-13T02:36:26.017Z,66.63
2022-09-13T02:38:59.413Z,66.90
2022-09-13T02:41:36.215Z,66.89
2022-09-13T02:44:10.519Z,67.46
2022-09-13T02:46:56.477Z,66.54
2022-09-13T02:49:32.276Z,66.30
2022-09-13T02:52:10.999Z,66.66
2022-09-13T02:54:43.838Z,66.50
2022-09-13T02:57:19.434Z,66.35
2022-09-13T02:59:47.964Z,66.91
2022-09-13T03:02:19.548Z,66.69
2022-09-13T03:04:50.742Z,67.33
2022-09-13T03:07:18.751Z,67.20
2022-09-13T03:09:51.158Z,67.30
2022-09-13T03:12:34.903Z,66.40
2022-09-13T03:15:15.278Z,67.38
2022-09-13T03:17:53.957Z,66.86
2022-09-13T03:20:32.937Z,67.10
2022-09-13T03:23:15.433Z,66.79
2022-09-13T03:26:01.306Z,66.70
2022-09-13T03:28:39.177Z,67.14
2022-09-13T03:31:16.314Z,67.30
2022-09-13T03:33:54.167Z,67.76
2022-09-13T03:36:28.556Z,68.58
2022-09-13T03:39:05.692Z,68.03
2022-09-13T03:41:37.554Z,68.31
2022-09-13T03:44:11.031Z,68.11
2022-09-13T03:46:42.672Z,67.82
2022-09-13T03:49:13.972Z,67.29
2022-09-13T03:51:45.672Z,67.64
2022-09-13T03:54:19.106Z,67.01
2022-09-13T03:57:11.345Z,67.20
2022-09-13T03:59:42.306Z,67.46
2022-09-13T04:02:12.148Z,67.44
2022-09-13T04:04:41.393Z,67.44
2022-09-13T04:07:12.652Z,67.24
2022-09-13T04:09:40.627Z,67.16
2022-09-13T04:12:10.016Z,67.17
2022-09-13T04:14:38.128Z,66.96
2022-09-13T04:17:06.354Z,66.90
2022-09-13T04:19:34.507Z,67.43
2022-09-13T04:22:02.501Z,67.39
2022-09-13T04:24:32.375Z,67.15
2022-09-13T04:27:00.765Z,67.19
2022-09-13T04:29:28.968Z,67.51
2022-09-13T04:31:56.988Z,66.82
2022-09-13T04:34:25.104Z,67.85
2022-09-13T04:36:54.586Z,67.16
2022-09-13T04:39:23.720Z,67.33
2022-09-13T04:41:57.342Z,67.50
2022-09-13T04:44:25.427Z,67.59
2022-09-13T04:46:53.293Z,67.75
2022-09-13T04:49:21.933Z,68.47
2022-09-13T04:51:49.829Z,68.44
2022-09-13T04:54:18.012Z,69.29
2022-09-13T04:56:47.004Z,69.56
2022-09-13T04:59:16.562Z,70.33
2022-09-13T05:01:44.497Z,70.17
2022-09-13T05:04:12.747Z,70.02
2022-09-13T05:06:40.581Z,69.13
2022-09-13T05:09:08.360Z,69.58
2022-09-13T05:11:36.204Z,69.43
2022-09-13T05:14:05.645Z,69.49
2022-09-13T05:16:35.042Z,69.45
2022-09-13T05:19:03.182Z,69.41
2022-09-13T05:21:31.944Z,68.69
2022-09-13T05:23:59.984Z,69.00
2022-09-13T05:26:31.208Z,68.46
2022-09-13T05:28:59.211Z,68.20
2022-09-13T05:31:30.469Z,68.64
2022-09-13T05:34:01.667Z,68.06
2022-09-13T05:36:29.933Z,67.50
2022-09-13T05:39:25.891Z,68.32
2022-09-13T05:41:46.888Z,68.42
2022-09-13T05:44:14.839Z,68.41
2022-09-13T05:46:43.308Z,68.45
2022-09-13T05:49:14.476Z,69.18
2022-09-13T05:51:42.433Z,69.35
2022-09-13T05:54:12.486Z,68.59
2022-09-13T05:56:40.395Z,68.45
2022-09-13T05:59:08.952Z,68.73
2022-09-13T06:01:36.889Z,68.23
2022-09-13T06:04:04.932Z,68.49
2022-09-13T06:06:35.936Z,68.52
2022-09-13T06:09:06.436Z,68.93
2022-09-13T06:11:34.212Z,68.90
2022-09-13T06:14:02.056Z,68.84
2022-09-13T06:16:29.962Z,69.05
2022-09-13T06:18:59.180Z,68.56
2022-09-13T06:21:29.066Z,68.43
2022-09-13T06:23:58.696Z,68.26
2022-09-13T06:26:28.068Z,68.16
2022-09-13T06:28:57.843Z,67.96
2022-09-13T06:31:27.900Z,67.87
2022-09-13T06:34:00.370Z,67.77
2022-09-13T06:36:28.437Z,67.68
2022-09-13T06:38:56.977Z,67.73
2022-09-13T06:41:27.232Z,67.71
2022-09-13T06:43:57.442Z,67.56
2022-09-13T06:46:26.606Z,67.73
2022-09-13T06:48:55.072Z,67.75
2022-09-13T06:51:24.630Z,68.15
2022-09-13T06:53:53.549Z,68.17
2022-09-13T06:56:23.492Z,67.58
2022-09-13T06:58:56.333Z,67.79
2022-09-13T07:01:26.128Z,67.78
2022-09-13T07:03:55.915Z,67.39
2022-09-13T07:06:25.307Z,67.53
2022-09-13T07:08:53.924Z,67.17
2022-09-13T07:11:23.061Z,66.65
2022-09-13T07:13:53.773Z,66.58
2022-09-13T07:16:24.593Z,66.37
2022-09-13T07:18:53.313Z,66.45
2022-09-13T07:21:22.199Z,66.15
2022-09-13T07:23:50.693Z,66.21
2022-09-13T07:26:18.586Z,66.19
2022-09-13T07:28:48.417Z,65.89
2022-09-13T07:31:20.611Z,65.84
2022-09-13T07:33:49.817Z,65.78
2022-09-13T07:36:17.623Z,65.81
2022-09-13T07:38:45.920Z,65.17
2022-09-13T07:41:15.677Z,65.66
2022-09-13T07:43:43.880Z,65.64
2022-09-13T07:46:13.355Z,65.58
2022-09-13T07:48:44.316Z,65.67
2022-09-13T07:51:13.970Z,65.11
2022-09-13T07:53:43.030Z,65.11
2022-09-13T07:56:12.821Z,65.33
2022-09-13T07:58:43.246Z,65.67
2022-09-13T08:01:14.211Z,65.68
2022-09-13T08:03:43.783Z,65.34
2022-09-13T08:06:11.795Z,65.65
2022-09-13T08:08:39.582Z,65.38
2022-09-13T08:11:08.111Z,65.51
2022-09-13T08:13:35.902Z,65.29
2022-09-13T08:16:05.865Z,65.16
2022-09-13T08:18:33.945Z,64.74
2022-09-13T08:21:03.426Z,64.62
2022-09-13T08:23:31.433Z,64.43
2022-09-13T08:26:02.936Z,64.17
2022-09-13T08:28:31.552Z,64.11
2022-09-13T08:31:05.095Z,64.24
2022-09-13T08:33:33.841Z,63.96
2022-09-13T08:36:04.065Z,64.20
2022-09-13T08:38:32.866Z,63.91
2022-09-13T08:41:05.729Z,63.79
2022-09-13T08:43:49.409Z,64.02
2022-09-13T08:46:24.239Z,63.73
2022-09-13T08:48:56.100Z,63.43
2022-09-13T08:51:33.038Z,63.10
2022-09-13T08:54:03.155Z,63.00
2022-09-13T08:56:39.668Z,62.70
2022-09-13T08:59:33.634Z,62.28
2022-09-13T09:02:15.151Z,62.28
2022-09-13T09:04:48.652Z,62.36
2022-09-13T09:07:21.134Z,61.89
2022-09-13T09:09:53.504Z,61.58
2022-09-13T09:12:32.937Z,61.68
2022-09-13T09:15:06.717Z,61.77
2022-09-13T09:17:47.447Z,61.75
2022-09-13T09:20:25.760Z,61.17
2022-09-13T09:22:56.730Z,61.07
2022-09-13T09:25:27.006Z,61.20
2022-09-13T09:27:55.365Z,61.22
2022-09-13T09:30:23.471Z,61.41
2022-09-13T09:33:06.617Z,61.12
2022-09-13T09:35:49.783Z,60.68
2022-09-13T09:38:37.941Z,60.26
2022-09-13T09:41:11.840Z,59.72
2022-09-13T09:43:45.902Z,59.33
2022-09-13T09:46:17.845Z,59.34
2022-09-13T09:48:53.301Z,59.21
2022-09-13T09:51:24.854Z,58.56
2022-09-13T09:54:02.021Z,58.35
2022-09-13T09:56:33.746Z,58.11
2022-09-13T09:59:02.692Z,57.79
2022-09-13T10:01:33.330Z,57.58
2022-09-13T10:04:09.397Z,57.53
2022-09-13T10:06:39.595Z,57.32
2022-09-13T10:09:20.677Z,57.26
2022-09-13T10:11:51.009Z,56.13
2022-09-13T10:14:31.434Z,55.77
2022-09-13T10:17:05.743Z,55.55
2022-09-13T10:19:34.224Z,55.63
2022-09-13T10:22:04.103Z,55.80
2022-09-13T10:24:33.821Z,55.45
2022-09-13T10:27:04.234Z,55.37
2022-09-13T10:29:33.761Z,55.49
2022-09-13T10:32:09.682Z,55.51
2022-09-13T10:34:38.339Z,55.71
2022-09-13T10:37:14.741Z,56.03
2022-09-13T10:39:56.097Z,55.92
2022-09-13T10:42:26.497Z,55.93
2022-09-13T10:44:58.889Z,55.87
2022-09-13T10:47:33.515Z,55.89
2022-09-13T10:50:19.904Z,55.33
2022-09-13T10:52:49.004Z,54.64
2022-09-13T10:55:33.529Z,54.48
2022-09-13T10:58:20.949Z,53.99
2022-09-13T11:01:15.133Z,53.50
2022-09-13T11:04:05.408Z,52.83
2022-09-13T11:06:40.787Z,52.26
2022-09-13T11:09:14.252Z,51.61
2022-09-13T11:11:51.729Z,50.49
2022-09-13T11:14:36.744Z,49.99
2022-09-13T11:17:18.366Z,49.66
2022-09-13T11:20:07.100Z,49.39
2022-09-13T11:22:56.975Z,49.67
2022-09-13T11:25:42.482Z,50.33
2022-09-13T11:28:21.972Z,50.32
2022-09-13T11:31:06.112Z,50.88
2022-09-13T11:33:46.933Z,50.79
2022-09-13T11:36:43.440Z,50.54
2022-09-13T11:39:25.094Z,50.64
2022-09-13T11:42:03.153Z,51.74
2022-09-13T11:44:52.506Z,51.74
2022-09-13T11:47:31.494Z,52.04
2022-09-13T11:50:16.495Z,52.04
2022-09-13T11:52:54.888Z,50.69
2022-09-13T11:55:27.516Z,49.20
2022-09-13T11:58:00.128Z,48.41
2022-09-13T12:00:33.298Z,48.41
2022-09-13T12:03:08.933Z,47.58
2022-09-13T12:05:41.665Z,47.93
2022-09-13T12:08:17.121Z,48.54
2022-09-13T12:10:49.826Z,48.68
2022-09-13T12:13:22.529Z,49.01
2022-09-13T12:15:55.820Z,48.23
2022-09-13T12:18:28.926Z,47.23
2022-09-13T12:21:00.587Z,46.66
2022-09-13T12:23:33.033Z,45.79
2022-09-13T12:26:04.597Z,45.45
2022-09-13T12:28:37.864Z,45.16
2022-09-13T12:31:12.432Z,44.78
2022-09-13T12:33:41.665Z,44.84
2022-09-13T12:36:43.558Z,44.94
2022-09-13T12:39:47.902Z,44.70
2022-09-13T12:42:48.258Z,44.59
2022-09-13T12:45:30.125Z,43.27
2022-09-13T12:48:16.121Z,42.10
2022-09-13T12:51:00.004Z,41.85
2022-09-13T12:53:47.402Z,42.39
2022-09-13T12:56:34.113Z,42.54
2022-09-13T12:59:21.072Z,42.64
2022-09-13T13:01:52.208Z,42.88
2022-09-13T13:04:24.931Z,43.00
2022-09-13T13:06:56.976Z,42.53
2022-09-13T13:09:32.138Z,41.95
2022-09-13T13:12:00.422Z,41.86
2022-09-13T13:14:46.475Z,41.51
2022-09-13T13:17:47.273Z,41.35
2022-09-13T13:20:46.204Z,40.61
2022-09-13T13:23:20.594Z,39.61
2022-09-13T13:26:00.355Z,39.46
2022-09-13T13:29:04.944Z,39.35
2022-09-13T13:31:40.690Z,38.85
2022-09-13T13:34:31.080Z,38.65
2022-09-13T13:37:04.162Z,36.56
2022-09-13T13:39:40.903Z,36.28
2022-09-13T13:42:15.144Z,36.61
2022-09-13T13:45:31.356Z,36.32
2022-09-13T13:48:35.329Z,37.16
2022-09-13T13:51:33.402Z,37.81
2022-09-13T13:54:25.287Z,37.24
2022-09-13T13:56:53.119Z,36.99
2022-09-13T13:59:26.801Z,37.49
2022-09-13T14:01:59.406Z,37.38
2022-09-13T14:04:48.602Z,37.50
2022-09-13T14:07:31.200Z,37.44
2022-09-13T14:10:07.053Z,37.51
2022-09-13T14:12:50.767Z,37.65
2022-09-13T14:15:35.228Z,37.93
2022-09-13T14:18:32.274Z,38.02
2022-09-13T14:21:02.324Z,38.19
2022-09-13T14:23:30.903Z,37.88
2022-09-13T14:26:01.969Z,37.26
2022-09-13T14:28:30.165Z,36.83
2022-09-13T14:30:59.636Z,36.67
2022-09-13T14:33:32.011Z,35.72
2022-09-13T14:36:03.536Z,35.27
2022-09-13T14:38:35.467Z,34.41
2022-09-13T14:41:14.527Z,34.08
2022-09-13T14:43:43.088Z,34.29
2022-09-13T14:46:16.589Z,34.04
2022-09-13T14:48:51.510Z,33.53
2022-09-13T14:51:24.293Z,33.89
2022-09-13T14:53:55.061Z,34.13
2022-09-13T14:56:33.543Z,34.31
2022-09-13T14:59:06.534Z,34.56
2022-09-13T15:01:36.507Z,34.97
2022-09-13T15:04:06.785Z,34.44
2022-09-13T15:06:38.187Z,34.83
2022-09-13T15:09:18.745Z,34.98
2022-09-13T15:11:59.361Z,34.71
2022-09-13T15:14:31.059Z,35.81
2022-09-13T15:17:08.909Z,36.41
2022-09-13T15:19:39.510Z,36.77
2022-09-13T15:22:17.061Z,37.31
2022-09-13T15:24:48.380Z,37.98
2022-09-13T15:27:28.994Z,38.34
2022-09-13T15:29:58.706Z,38.91
2022-09-13T15:32:34.028Z,39.03
2022-09-13T15:35:03.099Z,39.21
2022-09-13T15:37:34.693Z,39.56
2022-09-13T15:40:30.698Z,40.11
2022-09-13T15:43:00.491Z,41.03
2022-09-13T15:45:28.313Z,41.77
2022-09-13T15:47:56.260Z,41.64
2022-09-13T15:50:27.539Z,42.20
2022-09-13T15:52:56.112Z,42.74
2022-09-13T15:55:25.088Z,43.07
2022-09-13T15:57:52.912Z,43.71
2022-09-13T16:00:24.402Z,44.08
2022-09-13T16:02:52.687Z,44.43
2022-09-13T16:05:21.245Z,44.71
2022-09-13T16:07:49.388Z,45.03
2022-09-13T16:10:19.438Z,45.43
2022-09-13T16:12:47.277Z,45.66
2022-09-13T16:15:16.934Z,46.00
2022-09-13T16:17:46.101Z,45.93
2022-09-13T16:20:16.950Z,46.24
2022-09-13T16:22:44.945Z,46.73
2022-09-13T16:25:14.072Z,46.62
2022-09-13T16:27:42.749Z,46.97
2022-09-13T16:30:13.724Z,47.13
2022-09-13T16:32:42.292Z,47.75
2022-09-13T16:35:12.646Z,48.01
2022-09-13T16:37:41.887Z,48.27
2022-09-13T16:40:11.020Z,48.61
2022-09-13T16:42:39.158Z,49.37
2022-09-13T16:45:08.076Z,49.71
2022-09-13T16:47:35.916Z,49.82
2022-09-13T16:50:04.073Z,49.74
2022-09-13T16:52:33.764Z,49.78
2022-09-13T16:55:01.548Z,50.33
2022-09-13T16:57:29.936Z,50.14
2022-09-13T16:59:58.855Z,50.16
2022-09-13T17:02:27.514Z,50.24
2022-09-13T17:04:55.619Z,50.25
2022-09-13T17:07:23.439Z,50.41
2022-09-13T17:09:52.668Z,50.55
2022-09-13T17:12:20.829Z,50.88
2022-09-13T17:14:50.574Z,51.20
2022-09-13T17:17:18.825Z,51.78
2022-09-13T17:19:47.581Z,52.32
2022-09-13T17:22:16.429Z,52.78
2022-09-13T17:24:44.679Z,53.24
2022-09-13T17:27:13.827Z,53.26
2022-09-13T17:29:41.709Z,53.45
2022-09-13T17:32:09.741Z,53.69
2022-09-13T17:34:37.543Z,53.47
2022-09-13T17:37:06.632Z,54.37
2022-09-13T17:39:34.547Z,54.33
2022-09-13T17:42:02.555Z,54.59
2022-09-13T17:44:31.765Z,55.03
2022-09-13T17:46:59.587Z,55.45
2022-09-13T17:49:27.545Z,55.69
2022-09-13T17:51:55.738Z,56.05
2022-09-13T17:54:23.837Z,55.88
2022-09-13T17:56:51.935Z,56.01
2022-09-13T17:59:21.647Z,56.26
2022-09-13T18:01:52.638Z,56.34
2022-09-13T18:04:23.054Z,56.81
2022-09-13T18:06:52.262Z,56.97
2022-09-13T18:09:20.892Z,57.22
2022-09-13T18:11:49.149Z,57.37
2022-09-13T18:14:18.611Z,57.33
2022-09-13T18:16:49.261Z,57.45
2022-09-13T18:19:26.295Z,57.48
2022-09-13T18:22:06.677Z,57.51
2022-09-13T18:24:34.686Z,57.57
2022-09-13T18:27:02.855Z,57.48
2022-09-13T18:29:32.395Z,57.69
2022-09-13T18:32:00.523Z,57.67
2022-09-13T18:34:29.897Z,57.98
2022-09-13T18:36:57.808Z,58.06
2022-09-13T18:39:25.671Z,58.09
2022-09-13T18:41:53.465Z,58.23
2022-09-13T18:44:21.480Z,58.31
2022-09-13T18:46:50.715Z,58.64
2022-09-13T18:49:19.690Z,59.06
2022-09-13T18:51:49.449Z,59.15
2022-09-13T18:54:19.293Z,58.94
2022-09-13T18:56:47.959Z,59.19
2022-09-13T18:59:15.972Z,59.21
2022-09-13T19:01:45.286Z,59.45
2022-09-13T19:04:15.417Z,60.15
2022-09-13T19:06:45.780Z,60.22
2022-09-13T19:09:15.732Z,59.85
2022-09-13T19:11:47.625Z,60.26
2022-09-13T19:14:17.561Z,59.92
2022-09-13T19:16:45.409Z,59.83
2022-09-13T19:19:13.297Z,59.77
2022-09-13T19:21:42.113Z,59.61
2022-09-13T19:24:17.823Z,59.10
2022-09-13T19:26:50.660Z,58.65
2022-09-13T19:29:21.014Z,58.61
2022-09-13T19:31:50.686Z,58.41
2022-09-13T19:34:19.742Z,58.24
2022-09-13T19:36:50.449Z,58.44
2022-09-13T19:39:18.373Z,58.76
2022-09-13T19:41:47.561Z,59.29
2022-09-13T19:44:15.868Z,59.57
2022-09-13T19:46:43.943Z,59.98
2022-09-13T19:49:14.089Z,60.16
2022-09-13T19:51:45.546Z,60.31
2022-09-13T19:54:17.004Z,60.76
2022-09-13T19:56:45.580Z,60.55
2022-09-13T19:59:17.201Z,60.24
2022-09-13T20:01:47.050Z,60.30
2022-09-13T20:04:17.312Z,60.28
2022-09-13T20:06:46.876Z,60.14
2022-09-13T20:09:17.275Z,59.78
2022-09-13T20:11:45.821Z,59.85
2022-09-13T20:14:19.096Z,60.28
2022-09-13T20:16:47.776Z,59.84
2022-09-13T20:19:39.435Z,59.92
2022-09-13T20:22:06.788Z,59.68
2022-09-13T20:24:34.623Z,59.72
2022-09-13T20:27:02.468Z,59.72
2022-09-13T20:29:32.426Z,59.23
2022-09-13T20:32:02.203Z,59.42
2022-09-13T20:34:31.067Z,59.28
2022-09-13T20:36:59.041Z,59.48
2022-09-13T20:39:27.185Z,59.63
2022-09-13T20:41:55.052Z,59.50
2022-09-13T20:44:23.388Z,59.70
2022-09-13T20:46:52.583Z,59.89
2022-09-13T20:49:21.389Z,59.94
2022-09-13T20:51:49.950Z,59.79
2022-09-13T20:54:20.400Z,60.14
2022-09-13T20:56:48.439Z,60.21
2022-09-13T20:59:16.392Z,60.27
2022-09-13T21:01:45.065Z,60.25
2022-09-13T21:04:14.363Z,60.55
2022-09-13T21:07:03.556Z,60.98
2022-09-13T21:09:31.704Z,61.30
2022-09-13T21:12:01.257Z,61.50
2022-09-13T21:14:32.198Z,61.67
2022-09-13T21:17:00.430Z,62.20
2022-09-13T21:19:29.796Z,62.29
2022-09-13T21:21:57.737Z,62.49
2022-09-13T21:24:25.657Z,62.49
2022-09-13T21:26:53.715Z,62.65
2022-09-13T21:29:21.698Z,62.50
2022-09-13T21:31:49.773Z,62.61
2022-09-13T21:34:19.736Z,62.26
2022-09-13T21:36:50.625Z,62.41
2022-09-13T21:39:19.176Z,62.16
2022-09-13T21:41:47.597Z,62.03
2022-09-13T21:44:16.049Z,62.10
2022-09-13T21:46:46.440Z,62.07
2022-09-13T21:49:15.788Z,61.98
2022-09-13T21:51:45.075Z,61.84
2022-09-13T21:54:16.190Z,62.14
2022-09-13T21:56:45.934Z,62.17
2022-09-13T21:59:15.582Z,62.32
2022-09-13T22:01:46.733Z,62.60
2022-09-13T22:04:17.563Z,62.44
2022-09-13T22:06:46.464Z,62.60
2022-09-13T22:09:16.475Z,62.56
2022-09-13T22:11:46.154Z,62.75
2022-09-13T22:14:15.686Z,62.97
2022-09-13T22:16:46.420Z,63.02
2022-09-13T22:19:16.820Z,63.11
2022-09-13T22:21:47.195Z,63.17
2022-09-13T22:24:18.367Z,63.27
2022-09-13T22:26:47.710Z,63.35
2022-09-13T22:29:16.213Z,63.51
2022-09-13T22:31:45.616Z,63.38
2022-09-13T22:34:15.881Z,63.43
2022-09-13T22:36:43.953Z,63.47
2022-09-13T22:39:12.844Z,63.75
2022-09-13T22:41:42.419Z,63.75
2022-09-13T22:44:10.712Z,63.88
2022-09-13T22:46:40.453Z,63.95
2022-09-13T22:49:09.149Z,64.10
2022-09-13T22:51:37.122Z,64.40
2022-09-13T22:54:07.334Z,64.83
2022-09-13T22:56:37.258Z,64.65
2022-09-13T22:59:08.457Z,64.77
2022-09-13T23:01:37.377Z,64.73
2022-09-13T23:04:06.782Z,64.79
2022-09-13T23:06:36.026Z,64.98
2022-09-13T23:09:07.225Z,64.97
2022-09-13T23:11:37.184Z,64.90
2022-09-13T23:14:10.053Z,65.37
2022-09-13T23:16:40.330Z,65.44
2022-09-13T23:19:08.621Z,65.58
2022-09-13T23:21:38.060Z,65.79
2022-09-13T23:24:07.648Z,65.63
2022-09-13T23:26:35.995Z,65.58
2022-09-13T23:29:06.606Z,65.75
2022-09-13T23:31:38.434Z,65.59
2022-09-13T23:34:08.456Z,65.71
2022-09-13T23:36:38.916Z,66.01
2022-09-13T23:39:08.986Z,65.95
2022-09-13T23:41:37.057Z,66.38
2022-09-13T23:44:06.774Z,66.80
2022-09-13T23:46:35.198Z,66.75
2022-09-13T23:49:03.292Z,67.32
2022-09-13T23:51:31.642Z,67.56
2022-09-13T23:54:00.975Z,67.63
2022-09-13T23:56:30.898Z,67.77
2022-09-13T23:59:00.930Z,67.90
